CheckWX is a tool to help pilots better visualize weather data.  It is not intended as a substitute for an official pre-flight weather briefing.

19:04:33 UTC

KOQU METAR
Quonset State Airport
North Kingstown, Rhode Island, USA
Current

15 mins ago

KOQU 201850Z 03013KT 8SM -RA BKN015 OVC020 05/04 A2988
Observed
Nov-20 @ 18:50 UTC
Wind
  • 030° at 13 KTS
Visibility
8 SM
Flight Rules
MVFR
Conditions
Light Rain
Cloud Levels
  • Broken at 1,500' AGL
  • Overcast at 2,000' AGL
Temperature
C / 41°F
Dewpoint
C / 39°F
Humidity
93%
Altimeter
29.88" Hg
Pressure
1011.82 hPa
Previous

1 hour ago

KOQU 201750Z 02014KT 7SM -SHRA OVC011 05/03 A2986
Observed
Nov-20 @ 17:50 UTC
Wind
  • 020° at 14 KTS
Visibility
7 SM
Flight Rules
MVFR
Conditions
Light Rain
Cloud Levels
  • Overcast at 1,100' AGL
Temperature
C / 41°F
Dewpoint
C / 37°F
Humidity
87%
Altimeter
29.86" Hg
Pressure
1011.22 hPa
Previous

2 hours ago

KOQU 201650Z 02018KT 7SM -SHRA FEW007 OVC011 05/04 A2989
Observed
Nov-20 @ 16:50 UTC
Wind
  • 020° at 18 KTS
Visibility
7 SM
Flight Rules
MVFR
Conditions
Light Rain
Cloud Levels
  • Few at 700' AGL
  • Overcast at 1,100' AGL
Temperature
C / 41°F
Dewpoint
C / 39°F
Humidity
93%
Altimeter
29.89" Hg
Pressure
1012.22 hPa